Historique des mesures à Cassis (13260), France
Quotidien Résumé Juillet 17, 2017 Unités:  Métrique    US   Métrique/US
« Précédent (Jour)
Suivant (Jour) »
Quotidien Hebdomadaire Mensuel Annuel Période au choix
  Maximum: Minimum: Moyenne:
Température: TemperatureC °C 22.5 °C 25.7 °C
Point de rosée: DewpointC °C 10.6 °C 13.9 °C
Humidité: Humidity % 38 % 45 %
Vitesse du vent: 0 km/h 0 km/h 3.1 km/h
Rafales: 0 km/h - -
Vent:- - SE
Pression: PressurehPa hPa 1014.8 hPa -
Précipitations: 0.0 mm    
Historical Graphs
 
 
Mesures pour : Juillet 17, 2017
Heure Temperature Point de rosée Pression Vent Vitesse du vent Rafales Humidité Pluie (par heure) Conditions
TemperatureC °C DewpointC °C PressurehPa hPa Calm     Humidity % HourlyPrecipMM mm SoftwareType W/m2
00:11 24.3 °C 13.3 °C 1016.1 hPa NNW 2.9 km/h 3.4 km/h 50 % 0.0 mm open2300-1.11 W/m2
01:11 23.9 °C 12.6 °C 1016.1 hPa Calm   2.3 km/h 49 % 0.0 mm open2300-1.11 W/m2
02:11 23.5 °C 11.5 °C 1015.8 hPa NW 6.4 km/h 6.4 km/h 47 % 0.0 mm open2300-1.11 W/m2
03:11 23.6 °C 10.9 °C 1015.8 hPa North 2.9 km/h 2.9 km/h 45 % 0.0 mm open2300-1.11 W/m2
04:11 23.4 °C 10.7 °C 1015.5 hPa NNE 5.1 km/h 5.1 km/h 45 % 0.0 mm open2300-1.11 W/m2
05:11 23.2 °C 10.9 °C 1015.8 hPa North 2.9 km/h 2.9 km/h 46 % 0.0 mm open2300-1.11 W/m2
06:11 22.5 °C 10.6 °C 1016.1 hPa Calm   2.9 km/h 47 % 0.0 mm open2300-1.11 W/m2
07:11 22.9 °C 10.9 °C 1016.5 hPa NNE 2.3 km/h 2.3 km/h 47 % 0.0 mm open2300-1.11 W/m2
08:11 26.3 °C 12.0 °C 1016.8 hPa SE 8.9 km/h 8.9 km/h 41 % 0.0 mm open2300-1.11 W/m2
09:11 26.3 °C 11.7 °C 1016.8 hPa Calm   4.2 km/h 40 % 0.0 mm open2300-1.11 W/m2
10:11 27.1 °C 13.1 °C 1016.8 hPa Calm   9.3 km/h 42 % 0.0 mm open2300-1.11 W/m2
11:11 31.3 °C 15.2 °C 1016.8 hPa NNE 2.9 km/h 3.4 km/h 38 % 0.0 mm open2300-1.11 W/m2
12:11 31.4 °C 18.3 °C 1016.8 hPa Calm   8.9 km/h 46 % 0.0 mm open2300-1.11 W/m2
13:11 31.4 °C 19.4 °C 1016.8 hPa South 3.4 km/h 11.6 km/h 49 % 0.0 mm open2300-1.11 W/m2
14:11 31.1 °C 19.1 °C 1016.5 hPa NW 8.9 km/h 16.3 km/h 49 % 0.0 mm open2300-1.11 W/m2
15:11 30.8 °C 18.9 °C 1016.1 hPa NE 2.3 km/h 9.8 km/h 49 % 0.0 mm open2300-1.11 W/m2
16:11 30.4 °C 18.2 °C 1015.8 hPa SSE 6.9 km/h 6.9 km/h 48 % 0.0 mm open2300-1.11 W/m2
17:11 29.9 °C 18.4 °C 1015.5 hPa SSE 6.4 km/h 9.3 km/h 50 % 0.0 mm open2300-1.11 W/m2
18:11 29.3 °C 18.4 °C 1015.5 hPa Calm   4.2 km/h 52 % 0.0 mm open2300-1.11 W/m2
19:11 28.1 °C 17.3 °C 1015.1 hPa SSE 9.8 km/h 9.8 km/h 52 % 0.0 mm open2300-1.11 W/m2
20:11 27.2 °C 15.9 °C 1015.1 hPa SW 2.3 km/h 5.6 km/h 50 % 0.0 mm open2300-1.11 W/m2
21:11 26.1 °C 14.1 °C 1014.8 hPa Calm     48 % 0.0 mm open2300-1.11 W/m2
22:11 24.7 °C 12.9 °C 1014.8 hPa North 2.3 km/h 2.3 km/h 48 % 0.0 mm open2300-1.11 W/m2
23:11 23.8 °C 13.1 °C 1015.1 hPa Calm   3.4 km/h 51 % 0.0 mm open2300-1.11 W/m2
Observations météo à CASSIS
WU-History script by Weather Underground - 1 mb